createdAt,value
2018-12-18T00:00:34.066Z,1.75
2018-12-18T00:02:08.180Z,1.79
2018-12-18T00:03:39.434Z,1.84
2018-12-18T00:07:29.983Z,1.89
2018-12-18T00:09:00.671Z,1.87
2018-12-18T00:10:36.628Z,1.94
2018-12-18T00:12:06.706Z,1.98
2018-12-18T00:13:36.971Z,1.96
2018-12-18T00:15:07.324Z,2.02
2018-12-18T00:16:37.647Z,2.02
2018-12-18T00:18:08.354Z,2.04
2018-12-18T00:19:39.131Z,2.03
2018-12-18T00:21:09.160Z,2.04
2018-12-18T00:22:39.281Z,2.06
2018-12-18T00:24:09.774Z,1.98
2018-12-18T00:25:42.062Z,1.93
2018-12-18T00:27:12.385Z,1.88
2018-12-18T00:28:42.597Z,1.80
2018-12-18T00:30:12.849Z,1.76
2018-12-18T00:31:43.739Z,1.68
2018-12-18T00:33:14.066Z,1.76
2018-12-18T00:34:44.327Z,1.70
2018-12-18T00:36:22.788Z,1.73
2018-12-18T00:37:52.893Z,1.75
2018-12-18T00:39:22.984Z,1.83
2018-12-18T00:40:53.184Z,1.91
2018-12-18T00:42:25.203Z,1.98
2018-12-18T00:43:55.500Z,2.00
2018-12-18T00:45:25.614Z,1.99
2018-12-18T00:46:55.571Z,2.01
2018-12-18T00:48:25.706Z,2.03
2018-12-18T00:49:55.805Z,1.99
2018-12-18T00:51:25.854Z,2.02
2018-12-18T00:52:55.955Z,2.01
2018-12-18T00:54:26.078Z,2.04
2018-12-18T00:55:56.144Z,2.03
2018-12-18T00:57:26.446Z,2.12
2018-12-18T00:58:56.782Z,2.15
2018-12-18T01:00:27.383Z,2.16
2018-12-18T01:01:59.378Z,2.18
2018-12-18T01:03:31.775Z,2.24
2018-12-18T01:05:02.907Z,2.31
2018-12-18T01:06:34.062Z,2.27
2018-12-18T01:08:04.865Z,2.30
2018-12-18T01:09:37.016Z,2.38
2018-12-18T01:11:07.448Z,2.34
2018-12-18T01:12:41.683Z,2.41
2018-12-18T01:14:12.718Z,2.40
2018-12-18T01:15:44.963Z,2.42
2018-12-18T01:17:17.278Z,2.50
2018-12-18T01:18:49.435Z,2.46
2018-12-18T01:20:20.289Z,2.47
2018-12-18T01:21:52.820Z,2.52
2018-12-18T01:23:25.244Z,2.57
2018-12-18T01:24:59.130Z,2.52
2018-12-18T01:26:31.686Z,2.56
2018-12-18T01:28:03.958Z,2.49
2018-12-18T01:29:34.765Z,2.49
2018-12-18T01:31:05.322Z,2.50
2018-12-18T01:32:37.380Z,2.57
2018-12-18T01:34:07.862Z,2.63
2018-12-18T01:35:40.198Z,2.66
2018-12-18T01:37:10.583Z,2.58
2018-12-18T01:38:41.154Z,2.52
2018-12-18T01:40:13.154Z,2.48
2018-12-18T01:41:43.658Z,2.51
2018-12-18T01:43:15.902Z,2.51
2018-12-18T01:44:48.384Z,2.48
2018-12-18T01:46:18.594Z,2.40
2018-12-18T01:47:49.071Z,2.42
2018-12-18T01:49:21.368Z,2.43
2018-12-18T01:50:51.581Z,2.38
2018-12-18T01:52:21.803Z,2.34
2018-12-18T01:53:54.189Z,2.38
2018-12-18T01:55:24.559Z,2.41
2018-12-18T01:56:54.771Z,2.45
2018-12-18T01:58:24.900Z,2.44
2018-12-18T01:59:55.206Z,2.46
2018-12-18T02:01:25.402Z,2.37
2018-12-18T02:02:55.558Z,2.36
2018-12-18T02:04:25.786Z,2.33
2018-12-18T02:05:56.159Z,2.26
2018-12-18T02:07:26.163Z,2.29
2018-12-18T02:08:56.349Z,2.26
2018-12-18T02:10:26.698Z,2.29
2018-12-18T02:11:56.931Z,2.25
2018-12-18T02:13:28.944Z,2.24
2018-12-18T02:14:59.039Z,2.27
2018-12-18T02:16:29.197Z,2.26
2018-12-18T02:17:59.176Z,2.31
2018-12-18T02:19:31.480Z,2.33
2018-12-18T02:21:01.713Z,2.30
2018-12-18T02:22:32.005Z,2.36
2018-12-18T02:24:04.198Z,2.31
2018-12-18T02:25:35.027Z,2.36
2018-12-18T02:27:07.632Z,2.37
2018-12-18T02:28:39.655Z,2.35
2018-12-18T02:30:11.959Z,2.30
2018-12-18T02:31:44.715Z,2.25
2018-12-18T02:33:19.689Z,2.28
2018-12-18T02:34:54.029Z,2.27
2018-12-18T02:36:28.773Z,2.24
2018-12-18T02:38:01.640Z,2.29
2018-12-18T02:39:34.489Z,2.39
2018-12-18T02:41:08.428Z,2.42
2018-12-18T02:42:41.561Z,2.48
2018-12-18T02:44:12.723Z,2.54
2018-12-18T02:45:44.920Z,2.59
2018-12-18T02:47:17.157Z,2.66
2018-12-18T02:48:49.245Z,2.71
2018-12-18T02:50:21.695Z,2.69
2018-12-18T02:51:53.392Z,2.70
2018-12-18T02:53:24.192Z,2.72
2018-12-18T02:54:54.852Z,2.78
2018-12-18T02:56:26.924Z,2.72
2018-12-18T02:58:01.571Z,2.73
2018-12-18T02:59:35.553Z,2.76
2018-12-18T03:01:06.696Z,2.74
2018-12-18T03:02:38.733Z,2.63
2018-12-18T03:04:11.195Z,2.67
2018-12-18T03:05:44.478Z,2.72
2018-12-18T03:07:15.996Z,2.74
2018-12-18T03:08:48.301Z,2.82
2018-12-18T03:10:21.027Z,2.80
2018-12-18T03:11:53.380Z,2.88
2018-12-18T03:13:24.254Z,2.97
2018-12-18T03:14:56.675Z,3.04
2018-12-18T03:16:32.835Z,3.03
2018-12-18T03:18:03.711Z,3.11
2018-12-18T03:19:38.210Z,3.14
2018-12-18T03:21:10.868Z,3.14
2018-12-18T03:22:45.920Z,3.08
2018-12-18T03:24:18.235Z,3.13
2018-12-18T03:25:51.708Z,3.18
2018-12-18T03:27:22.615Z,3.18
2018-12-18T03:28:53.500Z,3.22
2018-12-18T03:30:26.095Z,3.27
2018-12-18T03:32:04.737Z,3.34
2018-12-18T03:33:37.007Z,3.41
2018-12-18T03:35:14.263Z,3.34
2018-12-18T03:36:46.829Z,3.39
2018-12-18T03:38:17.724Z,3.41
2018-12-18T03:39:51.944Z,3.40
2018-12-18T03:41:26.614Z,3.43
2018-12-18T03:43:02.029Z,3.44
2018-12-18T03:44:36.883Z,3.45
2018-12-18T03:46:11.678Z,3.42
2018-12-18T03:47:43.300Z,3.42
2018-12-18T03:49:15.776Z,3.36
2018-12-18T03:50:49.085Z,3.41
2018-12-18T03:52:19.711Z,3.40
2018-12-18T03:53:54.444Z,3.44
2018-12-18T03:55:29.087Z,3.41
2018-12-18T03:56:59.848Z,3.47
2018-12-18T03:58:33.916Z,3.54
2018-12-18T04:00:08.173Z,3.57
2018-12-18T04:01:40.946Z,3.53
2018-12-18T04:03:13.241Z,3.39
2018-12-18T04:04:45.943Z,3.38
2018-12-18T04:06:16.711Z,3.43
2018-12-18T04:07:49.084Z,3.47
2018-12-18T04:09:19.836Z,3.49
2018-12-18T04:10:50.810Z,3.56
2018-12-18T04:12:23.233Z,3.54
2018-12-18T04:13:55.655Z,3.58
2018-12-18T04:15:28.261Z,3.61
2018-12-18T04:17:00.116Z,3.68
2018-12-18T04:18:32.323Z,3.66
2018-12-18T04:20:03.551Z,3.68
2018-12-18T04:21:34.240Z,3.77
2018-12-18T04:23:06.143Z,3.74
2018-12-18T04:24:38.324Z,3.77
2018-12-18T04:26:09.159Z,3.79
2018-12-18T04:27:42.621Z,3.74
2018-12-18T04:29:16.587Z,3.75
2018-12-18T04:30:49.130Z,3.75
2018-12-18T04:32:21.345Z,3.67
2018-12-18T04:33:52.134Z,3.59
2018-12-18T04:35:23.956Z,3.63
2018-12-18T04:36:56.440Z,3.53
2018-12-18T04:38:27.230Z,3.52
2018-12-18T04:40:01.665Z,3.48
2018-12-18T04:41:32.567Z,3.35
2018-12-18T04:43:04.777Z,3.23
2018-12-18T04:44:37.872Z,3.21
2018-12-18T04:46:08.383Z,3.18
2018-12-18T04:47:41.045Z,3.18
2018-12-18T04:49:12.336Z,3.13
2018-12-18T04:50:46.437Z,3.04
2018-12-18T04:52:18.488Z,2.90
2018-12-18T04:53:50.727Z,2.75
2018-12-18T04:55:21.416Z,2.73
2018-12-18T04:56:54.084Z,2.71
2018-12-18T04:58:25.755Z,2.62
2018-12-18T05:00:00.097Z,2.60
2018-12-18T05:01:32.141Z,2.63
2018-12-18T05:03:02.643Z,2.65
2018-12-18T05:04:34.931Z,2.58
2018-12-18T05:06:07.371Z,2.47
2018-12-18T05:07:39.397Z,2.43
2018-12-18T05:09:11.718Z,2.47
2018-12-18T05:10:45.284Z,2.40
2018-12-18T05:12:20.516Z,2.24
2018-12-18T05:13:55.343Z,2.24
2018-12-18T05:15:29.285Z,2.26
2018-12-18T05:17:02.818Z,2.14
2018-12-18T05:18:34.928Z,2.12
2018-12-18T05:20:09.456Z,2.10
2018-12-18T05:21:39.500Z,2.08
2018-12-18T05:23:09.399Z,2.06
2018-12-18T05:24:39.298Z,2.08
2018-12-18T05:26:09.197Z,2.09
2018-12-18T05:27:39.092Z,2.04
2018-12-18T05:29:09.160Z,1.98
2018-12-18T05:30:39.279Z,1.98
2018-12-18T05:32:09.339Z,2.02
2018-12-18T05:33:39.230Z,2.03
2018-12-18T05:35:09.139Z,2.06
2018-12-18T05:36:39.179Z,2.06
2018-12-18T05:38:09.067Z,2.06
2018-12-18T05:39:39.103Z,2.06
2018-12-18T05:41:09.218Z,2.03
2018-12-18T05:42:39.109Z,1.98
2018-12-18T05:44:09.019Z,1.97
2018-12-18T05:45:38.918Z,1.98
2018-12-18T05:47:08.918Z,1.96
2018-12-18T05:48:38.815Z,1.95
2018-12-18T05:50:08.867Z,1.94
2018-12-18T05:51:38.750Z,1.98
2018-12-18T05:53:08.631Z,2.01
2018-12-18T05:54:38.527Z,1.89
2018-12-18T05:56:08.439Z,1.86
2018-12-18T05:57:38.337Z,1.78
2018-12-18T05:59:08.343Z,1.66
2018-12-18T06:00:38.382Z,1.59
2018-12-18T06:02:08.271Z,1.54
2018-12-18T06:03:38.159Z,1.59
2018-12-18T06:05:08.063Z,1.60
2018-12-18T06:06:37.952Z,1.56
2018-12-18T06:08:07.839Z,1.59
2018-12-18T06:09:37.740Z,1.60
2018-12-18T06:11:07.755Z,1.64
2018-12-18T06:12:37.742Z,1.58
2018-12-18T06:14:07.638Z,1.57
2018-12-18T06:15:37.539Z,1.56
2018-12-18T06:17:07.431Z,1.54
2018-12-18T06:18:37.450Z,1.52
2018-12-18T06:20:07.620Z,1.55
2018-12-18T06:21:37.578Z,1.56
2018-12-18T06:23:07.459Z,1.58
2018-12-18T06:24:37.371Z,1.57
2018-12-18T06:26:07.279Z,1.65
2018-12-18T06:27:37.170Z,1.71
2018-12-18T06:29:07.300Z,1.75
2018-12-18T06:30:37.192Z,1.78
2018-12-18T06:32:07.111Z,1.72
2018-12-18T06:33:36.991Z,1.73
2018-12-18T06:35:10.298Z,1.71
2018-12-18T06:36:38.790Z,1.67
2018-12-18T06:38:08.798Z,1.66
2018-12-18T06:39:38.707Z,1.66
2018-12-18T06:41:08.607Z,1.64
2018-12-18T06:42:38.495Z,1.60
2018-12-18T06:44:08.393Z,1.50
2018-12-18T06:45:38.290Z,1.46
2018-12-18T06:47:08.177Z,1.46
2018-12-18T06:48:38.091Z,1.46
2018-12-18T06:50:08.302Z,1.46
2018-12-18T06:51:38.317Z,1.36
2018-12-18T06:53:08.419Z,1.38
2018-12-18T06:54:38.315Z,1.37
2018-12-18T06:56:08.204Z,1.36
2018-12-18T06:57:38.086Z,1.36
2018-12-18T06:59:07.971Z,1.40
2018-12-18T07:00:37.872Z,1.49
2018-12-18T07:02:07.750Z,1.51
2018-12-18T07:03:37.739Z,1.57
2018-12-18T07:05:07.760Z,1.65
2018-12-18T07:06:37.668Z,1.73
2018-12-18T07:08:07.564Z,1.74
2018-12-18T07:09:37.565Z,1.78
2018-12-18T07:11:07.575Z,1.82
2018-12-18T07:12:37.467Z,1.80
2018-12-18T07:14:07.366Z,1.73
2018-12-18T07:15:37.286Z,1.76
2018-12-18T07:17:07.171Z,1.81
2018-12-18T07:18:37.086Z,1.89
2018-12-18T07:20:07.252Z,1.93
2018-12-18T07:21:37.163Z,1.88
2018-12-18T07:23:07.142Z,1.94
2018-12-18T07:24:37.038Z,1.99
2018-12-18T07:26:06.935Z,2.01
2018-12-18T07:27:36.819Z,2.06
2018-12-18T07:29:06.708Z,2.08
2018-12-18T07:30:36.755Z,2.10
2018-12-18T07:32:06.824Z,2.10
2018-12-18T07:33:36.778Z,2.09
2018-12-18T07:35:06.878Z,2.09
2018-12-18T07:36:37.007Z,2.15
2018-12-18T07:38:07.063Z,2.22
2018-12-18T07:39:37.048Z,2.25
2018-12-18T07:41:07.151Z,2.22
2018-12-18T07:42:37.261Z,2.13
2018-12-18T07:44:19.902Z,2.06
2018-12-18T07:45:50.027Z,2.12
2018-12-18T07:47:20.164Z,2.16
2018-12-18T07:48:50.382Z,2.19
2018-12-18T07:50:20.617Z,2.28
2018-12-18T07:51:50.629Z,2.37
2018-12-18T07:53:20.651Z,2.43
2018-12-18T07:54:50.659Z,2.50
2018-12-18T07:56:20.658Z,2.57
2018-12-18T07:57:50.629Z,2.59
2018-12-18T07:59:20.559Z,2.66
2018-12-18T08:00:50.728Z,2.69
2018-12-18T08:02:20.683Z,2.72
2018-12-18T08:03:50.655Z,2.64
2018-12-18T08:05:20.867Z,2.64
2018-12-18T08:06:50.803Z,2.72
2018-12-18T08:08:20.841Z,2.82
2018-12-18T08:09:51.011Z,2.84
2018-12-18T08:11:21.009Z,2.79
2018-12-18T08:12:54.666Z,2.81
2018-12-18T08:14:24.579Z,2.89
2018-12-18T08:15:54.534Z,2.96
2018-12-18T08:17:24.497Z,2.92
2018-12-18T08:18:54.493Z,2.95
2018-12-18T08:20:24.473Z,3.02
2018-12-18T08:21:54.412Z,3.05
2018-12-18T08:23:24.413Z,3.11
2018-12-18T08:24:54.428Z,3.12
2018-12-18T08:26:24.411Z,3.12
2018-12-18T08:33:35.744Z,3.24
2018-12-18T08:35:05.728Z,3.31
2018-12-18T08:36:35.656Z,3.38
2018-12-18T08:38:05.658Z,3.44
2018-12-18T08:39:35.597Z,3.51
2018-12-18T08:41:05.683Z,3.50
2018-12-18T08:42:35.591Z,3.48
2018-12-18T08:44:05.507Z,3.51
2018-12-18T08:45:35.500Z,3.67
2018-12-18T08:47:05.588Z,3.79
2018-12-18T08:48:35.614Z,3.88
2018-12-18T08:50:09.334Z,3.93
2018-12-18T08:51:39.338Z,3.95
2018-12-18T08:53:09.367Z,4.06
2018-12-18T08:54:39.318Z,4.18
2018-12-18T08:56:09.267Z,4.29
2018-12-18T08:57:39.232Z,4.38
2018-12-18T08:59:09.403Z,4.48
2018-12-18T09:00:39.455Z,4.58
2018-12-18T09:02:09.436Z,4.68
2018-12-18T09:03:39.432Z,4.80
2018-12-18T09:05:09.576Z,4.85
2018-12-18T09:06:39.648Z,4.90
2018-12-18T09:08:09.589Z,4.98
2018-12-18T09:09:39.556Z,5.07
2018-12-18T09:11:09.666Z,5.11
2018-12-18T09:12:39.656Z,5.23
2018-12-18T09:14:09.627Z,5.35
2018-12-18T09:15:45.531Z,5.46
2018-12-18T09:17:20.150Z,5.59
2018-12-18T09:18:50.263Z,5.73
2018-12-18T09:20:26.055Z,5.83
2018-12-18T09:21:55.979Z,6.01
2018-12-18T09:23:25.978Z,6.17
2018-12-18T09:24:55.984Z,6.30
2018-12-18T09:26:25.989Z,6.43
2018-12-18T09:27:55.919Z,6.46
2018-12-18T09:29:25.897Z,6.47
2018-12-18T09:30:55.896Z,6.62
2018-12-18T09:32:25.887Z,6.75
2018-12-18T09:33:55.888Z,6.89
2018-12-18T09:35:25.897Z,6.91
2018-12-18T09:36:56.032Z,6.92
2018-12-18T09:38:31.704Z,6.98
2018-12-18T09:40:01.936Z,7.04
2018-12-18T09:41:38.907Z,7.06
2018-12-18T09:43:14.660Z,7.04
2018-12-18T09:44:44.665Z,7.01
2018-12-18T09:46:14.762Z,7.02
2018-12-18T09:47:44.994Z,6.92
2018-12-18T09:49:15.057Z,6.87
2018-12-18T09:50:45.132Z,6.78
2018-12-18T09:53:51.943Z,6.95
2018-12-18T09:55:21.951Z,7.14
2018-12-18T09:56:51.931Z,7.60
2018-12-18T09:58:21.944Z,8.03
2018-12-18T09:59:51.898Z,8.36
2018-12-18T10:01:21.883Z,8.46
2018-12-18T10:02:51.991Z,8.48
2018-12-18T10:04:21.954Z,8.28
2018-12-18T10:05:56.334Z,8.26
2018-12-18T10:07:23.964Z,8.37
2018-12-18T10:08:53.956Z,8.53
2018-12-18T10:12:56.899Z,9.00
2018-12-18T10:14:27.105Z,9.03
2018-12-18T10:15:57.228Z,8.81
2018-12-18T10:17:27.172Z,8.59
2018-12-18T10:18:57.116Z,8.46
2018-12-18T10:20:27.060Z,8.38
2018-12-18T10:21:57.055Z,8.41
2018-12-18T10:23:27.337Z,8.51
2018-12-18T10:24:57.589Z,8.61
2018-12-18T10:26:27.787Z,8.68
2018-12-18T10:27:57.906Z,8.76
2018-12-18T10:29:27.898Z,8.68
2018-12-18T10:30:57.865Z,8.70
2018-12-18T10:32:27.843Z,8.72
2018-12-18T10:33:57.819Z,8.80
2018-12-18T10:35:27.991Z,8.90
2018-12-18T10:36:58.072Z,8.97
2018-12-18T10:38:28.204Z,9.00
2018-12-18T10:39:58.260Z,9.03
2018-12-18T10:41:28.252Z,8.98
2018-12-18T10:42:58.248Z,8.93
2018-12-18T10:44:28.261Z,8.86
2018-12-18T10:45:58.253Z,8.84
2018-12-18T10:47:28.510Z,8.91
2018-12-18T10:48:58.740Z,9.04
2018-12-18T10:50:28.784Z,9.04
2018-12-18T10:51:58.907Z,9.05
2018-12-18T10:53:29.177Z,8.99
2018-12-18T10:54:59.194Z,8.97
2018-12-18T10:56:29.194Z,8.99
2018-12-18T10:57:59.423Z,8.96
2018-12-18T10:59:29.563Z,8.92
2018-12-18T11:01:05.554Z,8.83
2018-12-18T11:02:35.810Z,8.76
2018-12-18T11:04:05.969Z,8.86
2018-12-18T11:05:36.316Z,8.97
2018-12-18T11:07:06.268Z,8.98
2018-12-18T11:08:36.901Z,9.04
2018-12-18T11:10:07.567Z,9.03
2018-12-18T11:11:38.017Z,8.97
2018-12-18T11:13:14.065Z,8.94
2018-12-18T11:14:44.446Z,8.92
2018-12-18T11:16:14.442Z,8.88
2018-12-18T11:18:03.553Z,8.85
2018-12-18T11:19:33.536Z,8.78
2018-12-18T11:21:03.499Z,8.71
2018-12-18T11:22:33.396Z,8.49
2018-12-18T11:24:03.600Z,8.29
2018-12-18T11:25:33.751Z,8.09
2018-12-18T11:27:03.753Z,7.99
2018-12-18T11:28:33.769Z,7.77
2018-12-18T11:30:04.489Z,7.65
2018-12-18T11:31:34.571Z,7.53
2018-12-18T11:33:19.163Z,7.50
2018-12-18T11:34:49.183Z,7.36
2018-12-18T11:36:19.103Z,7.38
2018-12-18T11:37:49.058Z,7.24
2018-12-18T11:39:18.970Z,7.16
2018-12-18T11:40:48.884Z,7.16
2018-12-18T11:42:18.919Z,7.15
2018-12-18T11:43:48.963Z,7.14
2018-12-18T11:45:18.892Z,7.13
2018-12-18T11:46:48.794Z,7.25
2018-12-18T11:48:18.955Z,7.26
2018-12-18T11:49:49.020Z,7.31
2018-12-18T11:51:19.021Z,7.37
2018-12-18T11:52:48.976Z,7.43
2018-12-18T11:54:18.930Z,7.55
2018-12-18T11:55:50.166Z,7.68
2018-12-18T11:57:20.226Z,7.77
2018-12-18T11:58:50.170Z,7.84
2018-12-18T12:00:20.459Z,7.95
2018-12-18T12:01:51.193Z,7.95
2018-12-18T12:03:21.283Z,7.96
2018-12-18T12:04:51.204Z,7.99
2018-12-18T12:06:23.191Z,8.07
2018-12-18T12:07:53.201Z,8.13
2018-12-18T12:09:23.221Z,8.25
2018-12-18T12:10:53.646Z,8.22
2018-12-18T12:12:23.637Z,8.25
2018-12-18T12:13:53.547Z,8.27
2018-12-18T12:15:23.512Z,8.27
2018-12-18T12:16:53.452Z,8.28
2018-12-18T12:18:23.420Z,8.35
2018-12-18T12:19:53.577Z,8.34
2018-12-18T12:21:23.526Z,8.39
2018-12-18T12:22:53.592Z,8.43
2018-12-18T12:24:23.596Z,8.42
2018-12-18T12:25:53.531Z,8.49
2018-12-18T12:27:29.263Z,8.53
2018-12-18T12:28:59.451Z,8.56
2018-12-18T12:30:29.542Z,8.45
2018-12-18T12:31:59.515Z,8.33
2018-12-18T12:33:29.551Z,8.27
2018-12-18T12:34:59.592Z,8.14
2018-12-18T12:36:30.029Z,8.13
2018-12-18T12:38:00.171Z,8.16
2018-12-18T12:39:36.827Z,8.20
2018-12-18T12:41:06.808Z,8.32
2018-12-18T12:42:36.768Z,8.39
2018-12-18T12:44:07.297Z,8.39
2018-12-18T12:45:37.385Z,8.43
2018-12-18T12:47:07.504Z,8.43
2018-12-18T12:48:43.362Z,8.26
2018-12-18T12:50:13.444Z,8.11
2018-12-18T12:51:43.807Z,7.92
2018-12-18T12:53:14.196Z,7.90
2018-12-18T12:54:44.573Z,7.90
2018-12-18T12:56:15.455Z,7.83
2018-12-18T12:57:46.093Z,7.65
2018-12-18T12:59:16.480Z,7.55
2018-12-18T13:00:46.511Z,7.41
2018-12-18T13:02:16.820Z,7.30
2018-12-18T13:03:47.545Z,7.19
2018-12-18T13:05:18.780Z,7.15
2018-12-18T13:06:49.128Z,7.19
2018-12-18T13:08:19.960Z,7.15
2018-12-18T13:09:50.088Z,7.10
2018-12-18T13:11:28.503Z,7.08
2018-12-18T13:12:58.460Z,7.04
2018-12-18T13:14:28.410Z,7.06
2018-12-18T13:15:58.337Z,6.98
2018-12-18T13:17:28.325Z,6.90
2018-12-18T13:18:58.290Z,7.00
2018-12-18T13:20:29.288Z,7.06
2018-12-18T13:21:59.239Z,7.05
2018-12-18T13:23:29.205Z,7.04
2018-12-18T13:24:59.408Z,7.07
2018-12-18T13:26:29.531Z,7.07
2018-12-18T13:27:59.472Z,7.08
2018-12-18T13:29:29.730Z,7.10
2018-12-18T13:32:36.624Z,7.09
2018-12-18T13:34:07.331Z,7.13
2018-12-18T13:35:37.318Z,7.17
2018-12-18T13:37:07.228Z,7.17
2018-12-18T13:38:37.239Z,7.00
2018-12-18T13:40:07.434Z,6.86
2018-12-18T13:41:37.353Z,6.77
2018-12-18T13:43:08.781Z,6.74
2018-12-18T13:44:40.114Z,6.73
2018-12-18T13:46:14.950Z,6.73
2018-12-18T13:47:43.928Z,6.74
2018-12-18T13:49:35.359Z,6.73
2018-12-18T13:51:06.735Z,6.68
2018-12-18T13:52:37.138Z,6.63
2018-12-18T13:54:07.933Z,6.65
2018-12-18T13:55:38.994Z,6.67
2018-12-18T13:57:10.261Z,6.48
2018-12-18T13:58:40.244Z,6.42
2018-12-18T14:00:10.319Z,6.39
2018-12-18T14:01:40.461Z,6.44
2018-12-18T14:03:10.551Z,6.47
2018-12-18T14:04:40.484Z,6.40
2018-12-18T14:06:10.442Z,6.37
2018-12-18T14:07:40.387Z,6.34
2018-12-18T14:09:10.284Z,6.29
2018-12-18T14:10:40.353Z,6.24
2018-12-18T14:12:10.297Z,6.21
2018-12-18T14:13:40.235Z,6.22
2018-12-18T14:15:10.750Z,6.17
2018-12-18T14:16:41.088Z,6.13
2018-12-18T14:18:17.300Z,6.09
2018-12-18T14:19:47.308Z,6.06
2018-12-18T14:21:17.279Z,6.02
2018-12-18T14:22:47.544Z,5.98
2018-12-18T14:24:18.018Z,5.91
2018-12-18T14:25:48.225Z,5.86
2018-12-18T14:27:18.152Z,5.82
2018-12-18T14:28:48.068Z,5.75
2018-12-18T14:30:18.180Z,5.65
2018-12-18T14:31:48.510Z,5.58
2018-12-18T14:33:24.863Z,5.48
2018-12-18T14:34:54.816Z,5.45
2018-12-18T14:36:24.892Z,5.46
2018-12-18T14:37:55.311Z,5.40
2018-12-18T14:39:25.294Z,5.42
2018-12-18T14:40:55.295Z,5.41
2018-12-18T14:42:25.283Z,5.44
2018-12-18T14:43:55.205Z,5.47
2018-12-18T14:45:25.430Z,5.40
2018-12-18T14:46:55.539Z,5.34
2018-12-18T14:48:27.317Z,5.30
2018-12-18T14:51:52.962Z,5.26
2018-12-18T14:53:22.891Z,5.21
2018-12-18T14:54:52.801Z,5.18
2018-12-18T14:56:22.738Z,5.17
2018-12-18T14:57:52.772Z,5.10
2018-12-18T14:59:23.034Z,5.05
2018-12-18T15:00:52.983Z,5.09
2018-12-18T15:02:23.046Z,5.04
2018-12-18T15:03:52.986Z,4.99
2018-12-18T15:05:22.952Z,4.91
2018-12-18T15:06:52.848Z,4.87
2018-12-18T15:08:22.762Z,4.82
2018-12-18T15:09:52.688Z,4.77
2018-12-18T15:11:26.692Z,4.74
2018-12-18T15:12:56.613Z,4.63
2018-12-18T15:14:26.535Z,4.59
2018-12-18T15:15:56.584Z,4.51
2018-12-18T15:17:26.515Z,4.45
2018-12-18T15:18:56.431Z,4.37
2018-12-18T15:20:26.409Z,4.31
2018-12-18T15:21:56.377Z,4.29
2018-12-18T15:23:26.480Z,4.31
2018-12-18T15:24:56.456Z,4.29
2018-12-18T15:26:26.383Z,4.29
2018-12-18T15:27:56.319Z,4.20
2018-12-18T15:29:26.382Z,4.18
2018-12-18T15:30:56.765Z,4.16
2018-12-18T15:32:26.986Z,4.18
2018-12-18T15:33:56.939Z,4.17
2018-12-18T15:35:27.428Z,4.20
2018-12-18T15:36:57.391Z,4.22
2018-12-18T15:38:27.356Z,4.27
2018-12-18T15:39:57.356Z,4.22
2018-12-18T15:41:27.288Z,4.28
2018-12-18T15:42:57.212Z,4.34
2018-12-18T15:44:27.144Z,4.36
2018-12-18T15:45:57.124Z,4.38
2018-12-18T15:47:27.028Z,4.39
2018-12-18T15:48:57.019Z,4.38
2018-12-18T15:50:27.271Z,4.43
2018-12-18T15:51:57.311Z,4.44
2018-12-18T15:53:27.291Z,4.48
2018-12-18T15:54:57.195Z,4.39
2018-12-18T15:56:27.300Z,4.43
2018-12-18T15:57:57.195Z,4.48
2018-12-18T15:59:27.070Z,4.47
2018-12-18T16:00:56.988Z,4.52
2018-12-18T16:02:26.969Z,4.43
2018-12-18T16:03:56.874Z,4.39
2018-12-18T16:05:26.812Z,4.41
2018-12-18T16:06:56.848Z,4.45
2018-12-18T16:08:26.731Z,4.29
2018-12-18T16:09:56.617Z,4.20
2018-12-18T16:11:26.523Z,4.05
2018-12-18T16:12:56.420Z,3.93
2018-12-18T16:14:26.433Z,3.88
2018-12-18T16:15:56.355Z,3.97
2018-12-18T16:17:26.388Z,4.06
2018-12-18T16:18:56.336Z,4.10
2018-12-18T16:20:33.032Z,4.16
2018-12-18T16:22:03.403Z,4.13
2018-12-18T16:23:33.303Z,4.20
2018-12-18T16:25:03.802Z,4.32
2018-12-18T16:26:33.723Z,4.28
2018-12-18T16:28:03.792Z,4.19
2018-12-18T16:29:33.731Z,4.08
2018-12-18T16:31:03.803Z,4.03
2018-12-18T16:32:33.730Z,4.05
2018-12-18T16:34:03.923Z,4.10
2018-12-18T16:35:33.826Z,4.11
2018-12-18T16:37:03.888Z,4.07
2018-12-18T16:38:33.777Z,4.02
2018-12-18T16:40:03.899Z,4.04
2018-12-18T16:41:33.831Z,4.07
2018-12-18T16:43:03.801Z,4.10
2018-12-18T16:44:33.756Z,4.14
2018-12-18T16:46:03.912Z,4.17
2018-12-18T16:47:33.842Z,4.14
2018-12-18T16:49:04.021Z,4.10
2018-12-18T16:50:34.827Z,4.02
2018-12-18T16:52:05.275Z,3.92
2018-12-18T16:53:35.374Z,3.90
2018-12-18T16:55:05.847Z,3.80
2018-12-18T16:56:36.000Z,3.76
2018-12-18T16:58:06.014Z,3.58
2018-12-18T16:59:36.097Z,3.57
2018-12-18T17:01:06.003Z,3.45
2018-12-18T17:02:36.196Z,3.40
2018-12-18T17:04:06.087Z,3.36
2018-12-18T17:05:35.992Z,3.33
2018-12-18T17:07:05.936Z,3.25
2018-12-18T17:08:35.882Z,3.22
2018-12-18T17:10:09.118Z,3.21
2018-12-18T17:11:39.020Z,3.20
2018-12-18T17:13:08.983Z,3.18
2018-12-18T17:14:39.014Z,3.19
2018-12-18T17:16:08.970Z,3.16
2018-12-18T17:17:38.967Z,3.19
2018-12-18T17:19:09.018Z,3.16
2018-12-18T17:20:39.124Z,3.06
2018-12-18T17:22:09.263Z,2.91
2018-12-18T17:23:39.361Z,2.83
2018-12-18T17:25:09.303Z,2.79
2018-12-18T17:26:39.232Z,2.79
2018-12-18T17:28:09.354Z,2.79
2018-12-18T17:29:39.272Z,2.71
2018-12-18T17:31:09.275Z,2.61
2018-12-18T17:32:39.264Z,2.49
2018-12-18T17:34:09.248Z,2.42
2018-12-18T17:35:40.456Z,2.38
2018-12-18T17:37:10.415Z,2.33
2018-12-18T17:38:50.855Z,2.34
2018-12-18T17:40:21.272Z,2.36
2018-12-18T17:41:51.268Z,2.33
2018-12-18T17:43:21.735Z,2.23
2018-12-18T17:44:51.759Z,2.20
2018-12-18T17:46:21.708Z,2.12
2018-12-18T17:47:51.817Z,2.07
2018-12-18T17:49:21.760Z,1.98
2018-12-18T17:50:51.719Z,1.83
2018-12-18T17:52:21.731Z,1.77
2018-12-18T17:53:51.822Z,1.68
2018-12-18T17:55:21.797Z,1.58
2018-12-18T17:56:51.812Z,1.57
2018-12-18T17:58:21.856Z,1.55
2018-12-18T17:59:51.857Z,1.57
2018-12-18T18:01:21.927Z,1.59
2018-12-18T18:02:52.012Z,1.65
2018-12-18T18:04:21.984Z,1.60
2018-12-18T18:05:53.944Z,1.52
2018-12-18T18:07:23.963Z,1.44
2018-12-18T18:08:54.037Z,1.43
2018-12-18T18:10:24.058Z,1.43
2018-12-18T18:11:54.153Z,1.36
2018-12-18T18:13:24.213Z,1.38
2018-12-18T18:14:54.219Z,1.36
2018-12-18T18:16:24.237Z,1.36
2018-12-18T18:17:54.372Z,1.31
2018-12-18T18:19:24.358Z,1.27
2018-12-18T18:20:54.422Z,1.25
2018-12-18T18:22:24.486Z,1.28
2018-12-18T18:24:07.873Z,1.26
2018-12-18T18:25:37.813Z,1.28
2018-12-18T18:27:08.016Z,1.23
2018-12-18T18:28:38.243Z,1.21
2018-12-18T18:30:08.581Z,1.24
2018-12-18T18:31:39.544Z,1.23
2018-12-18T18:33:09.622Z,1.18
2018-12-18T18:34:39.658Z,1.20
2018-12-18T18:36:09.620Z,1.24
2018-12-18T18:37:39.680Z,1.36
2018-12-18T18:39:09.663Z,1.39
2018-12-18T18:40:39.777Z,1.42
2018-12-18T18:42:09.988Z,1.47
2018-12-18T18:43:40.156Z,1.52
2018-12-18T18:45:13.019Z,1.52
2018-12-18T18:46:43.377Z,1.48
2018-12-18T18:48:13.413Z,1.44
2018-12-18T18:49:43.504Z,1.43
2018-12-18T18:51:13.501Z,1.43
2018-12-18T18:52:43.533Z,1.44
2018-12-18T18:54:13.524Z,1.49
2018-12-18T18:55:43.663Z,1.50
2018-12-18T18:57:13.927Z,1.52
2018-12-18T18:58:43.904Z,1.56
2018-12-18T19:00:13.965Z,1.54
2018-12-18T19:01:44.048Z,1.50
2018-12-18T19:03:14.241Z,1.39
2018-12-18T19:04:44.395Z,1.38
2018-12-18T19:06:14.420Z,1.36
2018-12-18T19:07:44.533Z,1.31
2018-12-18T19:09:14.574Z,1.30
2018-12-18T19:10:44.622Z,1.31
2018-12-18T19:12:14.689Z,1.34
2018-12-18T19:13:45.023Z,1.38
2018-12-18T19:15:15.008Z,1.38
2018-12-18T19:16:44.975Z,1.37
2018-12-18T19:18:14.966Z,1.35
2018-12-18T19:19:45.034Z,1.37
2018-12-18T19:21:15.226Z,1.39
2018-12-18T19:22:45.412Z,1.39
2018-12-18T19:24:15.423Z,1.44
2018-12-18T19:25:45.658Z,1.54
2018-12-18T19:27:15.695Z,1.64
2018-12-18T19:28:50.174Z,1.72
2018-12-18T19:30:19.563Z,1.77
2018-12-18T19:31:49.523Z,1.83
2018-12-18T19:33:19.677Z,1.88
2018-12-18T19:34:49.771Z,1.94
2018-12-18T19:36:19.817Z,1.99
2018-12-18T19:37:49.904Z,2.09
2018-12-18T19:39:21.229Z,2.09
2018-12-18T19:40:51.358Z,2.06
2018-12-18T19:42:23.462Z,2.09
2018-12-18T19:43:54.398Z,2.09
2018-12-18T19:45:24.383Z,2.14
2018-12-18T19:46:54.336Z,2.20
2018-12-18T19:48:24.582Z,2.25
2018-12-18T19:49:54.528Z,2.25
2018-12-18T19:51:24.519Z,2.24
2018-12-18T19:52:54.571Z,2.27
2018-12-18T19:54:24.593Z,2.29
2018-12-18T19:55:54.543Z,2.25
2018-12-18T19:57:24.548Z,2.27
2018-12-18T19:58:54.611Z,2.23
2018-12-18T20:00:24.654Z,2.21
2018-12-18T20:01:54.613Z,2.24
2018-12-18T20:03:24.740Z,2.24
2018-12-18T20:04:54.684Z,2.24
2018-12-18T20:06:24.824Z,2.34
2018-12-18T20:07:55.237Z,2.31
2018-12-18T20:09:28.297Z,2.30
2018-12-18T20:10:58.958Z,2.35
2018-12-18T20:12:28.911Z,2.37
2018-12-18T20:14:18.166Z,2.41
2018-12-18T20:15:49.368Z,2.39
2018-12-18T20:17:19.656Z,2.38
2018-12-18T20:18:49.947Z,2.44
2018-12-18T20:20:20.535Z,2.44
2018-12-18T20:21:51.119Z,2.45
2018-12-18T20:23:21.401Z,2.44
2018-12-18T20:24:52.396Z,2.43